createdAt,value
2023-01-25T00:00:31.189Z,5.60
2023-01-25T00:02:58.063Z,4.25
2023-01-25T00:05:25.214Z,4.50
2023-01-25T00:07:52.055Z,5.40
2023-01-25T00:10:19.272Z,6.03
2023-01-25T00:12:46.041Z,8.30
2023-01-25T00:15:13.246Z,6.22
2023-01-25T00:17:40.107Z,5.22
2023-01-25T00:20:07.533Z,4.90
2023-01-25T00:22:34.339Z,5.55
2023-01-25T00:25:01.088Z,6.32
2023-01-25T00:27:27.880Z,7.18
2023-01-25T00:29:54.629Z,4.82
2023-01-25T00:32:21.412Z,6.80
2023-01-25T00:34:50.033Z,4.47
2023-01-25T00:37:35.661Z,5.68
2023-01-25T00:40:02.436Z,6.10
2023-01-25T00:42:29.192Z,4.45
2023-01-25T00:44:55.911Z,5.57
2023-01-25T00:47:22.679Z,4.75
2023-01-25T00:49:50.381Z,4.22
2023-01-25T00:52:17.232Z,4.70
2023-01-25T00:54:44.097Z,5.70
2023-01-25T00:57:10.998Z,5.97
2023-01-25T00:59:37.762Z,6.45
2023-01-25T01:02:05.219Z,4.78
2023-01-25T01:04:32.112Z,5.13
2023-01-25T01:06:58.922Z,4.07
2023-01-25T01:09:25.777Z,6.05
2023-01-25T01:11:52.918Z,4.90
2023-01-25T01:14:21.219Z,5.07
2023-01-25T01:16:48.071Z,4.38
2023-01-25T01:19:15.028Z,7.50
2023-01-25T01:21:42.470Z,5.20
2023-01-25T01:24:10.908Z,7.53
2023-01-25T01:26:37.829Z,4.68
2023-01-25T01:29:04.695Z,4.88
2023-01-25T01:31:31.786Z,4.60
2023-01-25T01:33:58.642Z,6.57
2023-01-25T01:36:28.544Z,5.43
2023-01-25T01:38:55.624Z,4.35
2023-01-25T01:41:22.713Z,6.90
2023-01-25T01:43:49.546Z,5.43
2023-01-25T01:46:37.436Z,6.53
2023-01-25T01:49:17.003Z,4.13
2023-01-25T01:51:52.153Z,6.18
2023-01-25T01:54:29.253Z,5.57
2023-01-25T01:57:03.496Z,7.60
2023-01-25T01:59:48.499Z,5.97
2023-01-25T02:02:15.991Z,6.65
2023-01-25T02:04:46.181Z,6.85
2023-01-25T02:07:24.154Z,8.70
2023-01-25T02:09:51.645Z,5.47
2023-01-25T02:12:21.166Z,6.90
2023-01-25T02:14:52.556Z,5.18
2023-01-25T02:17:45.822Z,6.45
2023-01-25T02:20:21.779Z,5.22
2023-01-25T02:23:16.764Z,4.60
2023-01-25T02:25:43.637Z,5.25
2023-01-25T02:28:18.955Z,3.60
2023-01-25T02:30:46.250Z,6.75
2023-01-25T02:33:13.804Z,8.93
2023-01-25T02:35:48.326Z,6.78
2023-01-25T02:38:17.664Z,6.15
2023-01-25T02:41:21.064Z,8.77
2023-01-25T02:43:47.848Z,7.35
2023-01-25T02:46:31.946Z,4.20
2023-01-25T02:49:00.512Z,8.50
2023-01-25T02:51:30.694Z,8.95
2023-01-25T02:53:58.572Z,5.72
2023-01-25T02:56:25.637Z,6.90
2023-01-25T02:58:52.739Z,6.22
2023-01-25T03:01:20.004Z,9.13
2023-01-25T03:03:46.810Z,7.90
2023-01-25T03:06:13.723Z,6.45
2023-01-25T03:08:40.838Z,7.00
2023-01-25T03:11:08.199Z,7.63
2023-01-25T03:13:36.160Z,5.63
2023-01-25T03:16:09.373Z,9.88
2023-01-25T03:18:37.010Z,5.30
2023-01-25T03:21:11.348Z,8.98
2023-01-25T03:23:38.681Z,8.30
2023-01-25T03:26:10.549Z,6.85
2023-01-25T03:28:38.812Z,8.57
2023-01-25T03:31:06.422Z,8.02
2023-01-25T03:33:33.713Z,6.38
2023-01-25T03:36:00.903Z,9.02
2023-01-25T03:38:28.709Z,6.35
2023-01-25T03:40:55.509Z,7.45
2023-01-25T03:43:22.572Z,6.82
2023-01-25T03:45:57.917Z,7.18
2023-01-25T03:48:26.195Z,6.03
2023-01-25T03:50:55.540Z,6.78
2023-01-25T03:53:29.926Z,8.65
2023-01-25T03:55:59.341Z,6.65
2023-01-25T03:58:26.977Z,4.05
2023-01-25T04:00:59.225Z,5.03
2023-01-25T04:03:26.645Z,5.05
2023-01-25T04:05:54.575Z,4.95
2023-01-25T04:08:22.004Z,5.80
2023-01-25T04:10:53.765Z,4.55
2023-01-25T04:13:22.249Z,5.70
2023-01-25T04:15:49.317Z,5.78
2023-01-25T04:18:16.556Z,5.43
2023-01-25T04:20:43.886Z,5.65
2023-01-25T04:23:11.122Z,7.15
2023-01-25T04:25:38.715Z,4.28
2023-01-25T04:28:05.675Z,4.35
2023-01-25T04:30:32.489Z,6.75
2023-01-25T04:33:06.890Z,6.60
2023-01-25T04:35:33.656Z,6.15
2023-01-25T04:38:00.821Z,4.53
2023-01-25T04:40:27.951Z,4.40
2023-01-25T04:42:54.673Z,4.20
2023-01-25T04:45:21.637Z,5.15
2023-01-25T04:47:49.124Z,3.22
2023-01-25T04:50:16.303Z,5.75
2023-01-25T04:52:43.005Z,5.30
2023-01-25T04:55:10.258Z,4.45
2023-01-25T04:57:37.104Z,2.78
2023-01-25T05:00:04.388Z,4.22
2023-01-25T05:02:31.276Z,3.75
2023-01-25T05:04:58.061Z,5.10
2023-01-25T05:07:24.867Z,4.38
2023-01-25T05:09:51.949Z,3.97
2023-01-25T05:12:18.675Z,4.03
2023-01-25T05:14:45.365Z,3.83
2023-01-25T05:17:12.156Z,4.07
2023-01-25T05:19:38.860Z,2.92
2023-01-25T05:22:07.848Z,4.20
2023-01-25T05:24:36.057Z,3.78
2023-01-25T05:27:07.998Z,3.97
2023-01-25T05:29:36.475Z,4.00
2023-01-25T05:32:08.456Z,5.95
2023-01-25T05:34:35.348Z,4.82
2023-01-25T05:37:02.685Z,4.25
2023-01-25T05:39:30.098Z,4.43
2023-01-25T05:41:57.014Z,4.80
2023-01-25T05:44:24.231Z,3.33
2023-01-25T05:46:51.399Z,3.45
2023-01-25T05:49:19.004Z,4.45
2023-01-25T05:51:46.548Z,5.00
2023-01-25T05:54:18.283Z,3.78
2023-01-25T05:56:45.387Z,2.83
2023-01-25T05:59:12.572Z,3.20
2023-01-25T06:01:39.665Z,2.47
2023-01-25T06:04:06.755Z,2.80
2023-01-25T06:06:33.603Z,2.47
2023-01-25T06:09:01.569Z,6.75
2023-01-25T06:11:28.449Z,4.63
2023-01-25T06:13:55.281Z,4.43
2023-01-25T06:16:22.112Z,3.38
2023-01-25T06:18:48.832Z,2.75
2023-01-25T06:21:15.667Z,2.13
2023-01-25T06:23:45.007Z,4.55
2023-01-25T06:26:13.660Z,3.42
2023-01-25T06:28:40.612Z,4.85
2023-01-25T06:31:16.640Z,3.85
2023-01-25T06:33:44.609Z,5.53
2023-01-25T06:36:13.799Z,2.45
2023-01-25T06:38:41.215Z,4.43
2023-01-25T06:41:12.356Z,2.22
2023-01-25T06:43:39.608Z,1.75
2023-01-25T06:46:08.740Z,3.40
2023-01-25T06:48:36.372Z,2.20
2023-01-25T06:51:05.727Z,5.28
2023-01-25T06:53:34.801Z,3.53
2023-01-25T06:56:03.860Z,2.97
2023-01-25T06:58:31.778Z,3.55
2023-01-25T07:01:04.756Z,3.25
2023-01-25T07:03:32.623Z,3.58
2023-01-25T07:06:02.001Z,4.32
2023-01-25T07:08:29.181Z,5.15
2023-01-25T07:10:57.833Z,3.97
2023-01-25T07:13:26.055Z,3.22
2023-01-25T07:15:58.107Z,3.25
2023-01-25T07:18:25.995Z,4.13
2023-01-25T07:20:52.907Z,3.05
2023-01-25T07:23:20.513Z,5.05
2023-01-25T07:25:49.554Z,4.10
2023-01-25T07:28:17.333Z,4.07
2023-01-25T07:30:44.695Z,2.17
2023-01-25T07:33:12.075Z,1.90
2023-01-25T07:35:38.844Z,1.75
2023-01-25T07:38:05.952Z,1.88
2023-01-25T07:40:32.717Z,3.72
2023-01-25T07:42:59.491Z,7.10
2023-01-25T07:45:32.377Z,4.05
2023-01-25T07:48:00.287Z,3.28
2023-01-25T07:50:28.070Z,3.83
2023-01-25T07:52:55.429Z,3.83
2023-01-25T07:55:22.267Z,6.45
2023-01-25T07:57:49.235Z,3.50
2023-01-25T08:00:16.343Z,4.90
2023-01-25T08:02:43.525Z,3.88
2023-01-25T08:05:11.096Z,3.72
2023-01-25T08:07:38.137Z,5.82
2023-01-25T08:10:07.092Z,5.97
2023-01-25T08:12:34.559Z,4.03
2023-01-25T08:15:01.735Z,3.67
2023-01-25T08:17:31.760Z,6.43
2023-01-25T08:20:00.177Z,11.05
2023-01-25T08:22:27.435Z,5.75
2023-01-25T08:24:54.952Z,5.20
2023-01-25T08:27:21.854Z,3.83
2023-01-25T08:29:50.615Z,7.25
2023-01-25T08:32:17.408Z,4.80
2023-01-25T08:34:44.225Z,4.32
2023-01-25T08:37:10.975Z,4.22
2023-01-25T08:39:37.997Z,4.18
2023-01-25T08:42:05.695Z,4.90
2023-01-25T08:44:32.769Z,5.32
2023-01-25T08:46:59.548Z,3.10
2023-01-25T08:49:27.728Z,3.33
2023-01-25T08:51:54.469Z,3.88
2023-01-25T08:54:21.231Z,5.38
2023-01-25T08:56:48.027Z,2.85
2023-01-25T08:59:14.791Z,3.00
2023-01-25T09:01:41.674Z,4.13
2023-01-25T09:04:08.387Z,3.38
2023-01-25T09:06:35.178Z,3.03
2023-01-25T09:09:02.056Z,5.68
2023-01-25T09:11:28.800Z,7.85
2023-01-25T09:13:55.546Z,8.38
2023-01-25T09:16:30.848Z,4.88
2023-01-25T09:18:59.829Z,4.90
2023-01-25T09:21:26.688Z,2.70
2023-01-25T09:24:09.688Z,6.70
2023-01-25T09:26:45.978Z,2.92
2023-01-25T09:29:16.807Z,8.20
2023-01-25T09:31:44.196Z,4.45
2023-01-25T09:34:12.824Z,3.22
2023-01-25T09:36:39.897Z,6.47
2023-01-25T09:39:06.936Z,3.88
2023-01-25T09:41:42.401Z,6.75
2023-01-25T09:44:30.553Z,3.83
2023-01-25T09:47:02.231Z,5.38
2023-01-25T09:49:28.934Z,4.97
2023-01-25T09:52:17.472Z,4.85
2023-01-25T09:54:47.653Z,6.25
2023-01-25T09:57:37.051Z,5.68
2023-01-25T10:00:18.124Z,5.93
2023-01-25T10:03:06.100Z,11.82
2023-01-25T10:05:42.765Z,4.80
2023-01-25T10:08:29.001Z,10.05
2023-01-25T10:11:21.936Z,9.55
2023-01-25T10:13:49.242Z,10.00
2023-01-25T10:16:25.982Z,5.75
2023-01-25T10:19:13.204Z,5.72
2023-01-25T10:21:47.297Z,4.32
2023-01-25T10:24:44.772Z,5.53
2023-01-25T10:27:28.450Z,5.90
2023-01-25T10:29:59.037Z,5.57
2023-01-25T10:32:35.851Z,4.10
2023-01-25T10:35:34.386Z,9.15
2023-01-25T10:38:10.925Z,9.27
2023-01-25T10:40:46.425Z,5.60
2023-01-25T10:43:20.301Z,4.70
2023-01-25T10:45:48.356Z,6.65
2023-01-25T10:48:22.522Z,8.32
2023-01-25T10:50:52.723Z,6.30
2023-01-25T10:53:27.704Z,7.10
2023-01-25T10:56:10.075Z,5.20
2023-01-25T10:59:09.177Z,5.65
2023-01-25T11:01:37.698Z,5.13
2023-01-25T11:04:24.394Z,3.60
2023-01-25T11:06:51.642Z,5.15
2023-01-25T11:09:21.338Z,1.95
2023-01-25T11:12:00.946Z,2.33
2023-01-25T11:14:32.684Z,1.73
2023-01-25T11:17:01.868Z,2.78
2023-01-25T11:19:40.464Z,2.75
2023-01-25T11:22:24.217Z,0.85
2023-01-25T11:24:50.976Z,2.72
2023-01-25T11:27:26.249Z,2.00
2023-01-25T11:30:19.419Z,1.27
2023-01-25T11:32:46.365Z,2.15
2023-01-25T11:35:21.229Z,0.93
2023-01-25T11:38:14.710Z,2.20
2023-01-25T11:40:53.894Z,0.50
2023-01-25T11:44:00.672Z,2.10
2023-01-25T11:47:04.715Z,3.05
2023-01-25T11:49:54.389Z,0.95
2023-01-25T11:52:39.377Z,1.90
2023-01-25T11:55:22.578Z,0.15
2023-01-25T11:58:32.787Z,2.67
2023-01-25T12:01:32.368Z,0.73
2023-01-25T12:04:25.489Z,2.40
2023-01-25T12:07:12.516Z,0.50
2023-01-25T12:10:04.356Z,1.95
2023-01-25T12:12:49.110Z,2.53
2023-01-25T12:15:28.919Z,2.05
2023-01-25T12:18:04.529Z,1.30
2023-01-25T12:20:42.972Z,0.60
2023-01-25T12:23:28.057Z,0.73
2023-01-25T12:26:12.606Z,1.85
2023-01-25T12:28:48.650Z,1.85
2023-01-25T12:31:30.730Z,1.60
2023-01-25T12:34:03.735Z,1.70
2023-01-25T12:36:40.799Z,0.88
2023-01-25T12:39:14.438Z,0.52
2023-01-25T12:41:48.767Z,0.57
2023-01-25T12:44:33.487Z,0.90
2023-01-25T12:47:21.201Z,0.88
2023-01-25T12:50:06.800Z,1.70
2023-01-25T12:52:42.506Z,3.88
2023-01-25T12:55:17.762Z,3.00
2023-01-25T12:57:53.584Z,4.47
2023-01-25T13:00:35.862Z,3.58
2023-01-25T13:03:02.599Z,5.40
2023-01-25T13:05:52.487Z,2.53
2023-01-25T13:08:37.084Z,9.63
2023-01-25T13:11:24.232Z,9.20
2023-01-25T13:13:51.477Z,7.70
2023-01-25T13:16:30.488Z,12.13
2023-01-25T13:18:58.620Z,8.48
2023-01-25T13:21:37.408Z,8.82
2023-01-25T13:24:11.381Z,8.43
2023-01-25T13:26:57.965Z,9.40
2023-01-25T13:29:39.929Z,12.80
2023-01-25T13:32:36.415Z,6.57
2023-01-25T13:35:03.332Z,9.32
2023-01-25T13:37:34.679Z,11.90
2023-01-25T13:42:38.931Z,10.77
2023-01-25T13:45:18.721Z,10.20
2023-01-25T13:48:11.532Z,8.38
2023-01-25T13:50:44.458Z,10.65
2023-01-25T13:53:17.273Z,10.50
2023-01-25T13:55:56.020Z,9.07
2023-01-25T13:58:28.741Z,12.90
2023-01-25T14:01:06.657Z,6.80
2023-01-25T14:03:44.661Z,11.35
2023-01-25T14:06:22.578Z,10.88
2023-01-25T14:08:51.047Z,6.60
2023-01-25T14:11:20.322Z,6.85
2023-01-25T14:14:16.732Z,4.82
2023-01-25T14:16:44.344Z,6.80
2023-01-25T14:19:26.511Z,5.90
2023-01-25T14:22:31.288Z,8.68
2023-01-25T14:25:05.480Z,14.77
2023-01-25T14:27:35.040Z,7.65
2023-01-25T14:30:05.460Z,8.77
2023-01-25T14:32:33.016Z,7.47
2023-01-25T14:35:19.826Z,6.15
2023-01-25T14:37:46.617Z,5.15
2023-01-25T14:40:13.576Z,5.72
2023-01-25T14:42:40.361Z,7.90
2023-01-25T14:45:12.763Z,8.57
2023-01-25T14:47:41.120Z,9.20
2023-01-25T14:50:34.614Z,6.53
2023-01-25T14:53:25.358Z,7.05
2023-01-25T14:55:52.211Z,6.38
2023-01-25T14:58:24.696Z,10.65
2023-01-25T15:01:00.099Z,6.10
2023-01-25T15:03:27.575Z,7.43
2023-01-25T15:05:55.521Z,6.28
2023-01-25T15:08:29.525Z,8.40
2023-01-25T15:10:58.451Z,4.68
2023-01-25T15:13:27.081Z,8.27
2023-01-25T15:15:58.530Z,10.10
2023-01-25T15:18:44.358Z,4.90
2023-01-25T15:21:13.919Z,5.15
2023-01-25T15:23:42.526Z,10.15
2023-01-25T15:26:21.260Z,7.07
2023-01-25T15:28:52.501Z,6.75
2023-01-25T15:31:26.981Z,7.22
2023-01-25T15:33:55.516Z,6.03
2023-01-25T15:36:23.203Z,6.10
2023-01-25T15:38:50.060Z,8.75
2023-01-25T15:41:18.769Z,5.97
2023-01-25T15:43:49.759Z,6.85
2023-01-25T15:46:22.653Z,7.85
2023-01-25T15:48:51.100Z,7.68
2023-01-25T15:51:18.404Z,6.90
2023-01-25T15:53:45.529Z,8.00
2023-01-25T15:56:15.452Z,8.85
2023-01-25T15:58:45.834Z,5.28
2023-01-25T16:01:13.010Z,7.23
2023-01-25T16:03:41.696Z,10.80
2023-01-25T16:06:34.568Z,7.40
2023-01-25T16:09:04.293Z,10.02
2023-01-25T16:11:31.009Z,7.65
2023-01-25T16:13:58.111Z,5.90
2023-01-25T16:16:26.538Z,8.30
2023-01-25T16:18:53.351Z,6.45
2023-01-25T16:21:20.064Z,6.50
2023-01-25T16:23:47.554Z,9.88
2023-01-25T16:26:25.972Z,8.80
2023-01-25T16:28:52.850Z,8.55
2023-01-25T16:31:31.796Z,10.63
2023-01-25T16:34:00.695Z,15.32
2023-01-25T16:36:27.919Z,10.50
2023-01-25T16:38:54.880Z,10.65
2023-01-25T16:41:21.924Z,15.70
2023-01-25T16:43:49.386Z,10.18
2023-01-25T16:46:21.954Z,7.70
2023-01-25T16:48:51.070Z,13.02
2023-01-25T16:51:23.218Z,14.38
2023-01-25T16:53:51.754Z,13.27
2023-01-25T16:56:19.694Z,7.85
2023-01-25T16:58:47.408Z,7.75
2023-01-25T17:01:15.989Z,12.85
2023-01-25T17:03:43.205Z,15.40
2023-01-25T17:06:20.389Z,21.52
2023-01-25T17:08:48.295Z,17.63
2023-01-25T17:11:15.897Z,9.93
2023-01-25T17:13:42.678Z,13.18
2023-01-25T17:16:09.579Z,19.00
2023-01-25T17:18:36.335Z,9.30
2023-01-25T17:21:06.430Z,16.60
2023-01-25T17:23:37.748Z,16.50
2023-01-25T17:28:37.066Z,19.48
2023-01-25T17:31:04.648Z,19.13
2023-01-25T17:33:32.289Z,48.33
2023-01-25T17:36:02.967Z,33.28
2023-01-25T17:38:29.727Z,35.13
2023-01-25T17:40:56.552Z,22.23
2023-01-25T17:43:23.509Z,18.75
2023-01-25T17:45:50.353Z,17.23
2023-01-25T17:48:17.116Z,22.08
2023-01-25T17:50:43.839Z,13.02
2023-01-25T17:53:11.170Z,11.73
2023-01-25T17:55:39.055Z,16.02
2023-01-25T17:58:06.273Z,39.65
2023-01-25T18:00:33.097Z,59.47
2023-01-25T18:02:59.896Z,36.88
2023-01-25T18:05:29.394Z,11.60
2023-01-25T18:07:56.166Z,24.23
2023-01-25T18:10:23.346Z,12.48
2023-01-25T18:13:03.585Z,43.72
2023-01-25T18:15:31.204Z,43.15
2023-01-25T18:17:58.552Z,30.92
2023-01-25T18:20:25.239Z,25.17
2023-01-25T18:22:52.369Z,20.33
2023-01-25T18:25:37.065Z,17.65
2023-01-25T18:28:04.008Z,20.85
2023-01-25T18:30:43.065Z,19.75
2023-01-25T18:33:09.868Z,12.02
2023-01-25T18:35:36.753Z,18.75
